Time;durP1;ratioP1;P1;durP2;ratioP2;P2;SDS_P1;SDS_P2;PMS_P1;PMS_P2;Temp;Humidity;BMP_temperature;BMP_pressure;BME280_temperature;BME280_humidity;BME280_pressure;Samples;Min_cycle;Max_cycle;Signal;HPM_P1;HPM_P2
2022/05/24 00:02:14;;;;;;;6.03;1.60;;;19.30;98.00;;;;;;5073844;28;20824;-72
2022/05/24 00:04:42;;;;;;;3.00;1.83;;;19.30;98.00;;;;;;5091860;28;20486;-72
2022/05/24 00:07:11;;;;;;;1.33;1.20;;;19.30;98.00;;;;;;5091296;28;20513;-72
2022/05/24 00:09:39;;;;;;;1.87;1.30;;;19.30;98.00;;;;;;5091518;28;20457;-72
2022/05/24 00:12:08;;;;;;;1.80;1.40;;;19.30;98.00;;;;;;5091225;28;20961;-72
2022/05/24 00:17:25;;;;;;;1.30;1.30;;;19.20;98.00;;;;;;5070473;28;20475;-72
2022/05/24 00:19:56;;;;;;;1.60;1.30;;;19.20;98.00;;;;;;5091270;28;20525;-72
2022/05/24 00:22:23;;;;;;;1.70;1.60;;;19.20;98.00;;;;;;5090651;28;20466;-72
2022/05/24 00:24:50;;;;;;;1.80;1.43;;;19.30;98.00;;;;;;5091388;28;20831;-72
2022/05/24 00:27:17;;;;;;;1.20;1.10;;;19.20;98.00;;;;;;5091208;28;20736;-72
2022/05/24 00:29:44;;;;;;;1.23;1.10;;;19.00;98.00;;;;;;5091286;28;20447;-72
2022/05/24 00:32:12;;;;;;;1.20;1.20;;;18.80;98.00;;;;;;5091115;28;20945;-72
2022/05/24 00:34:39;;;;;;;1.20;1.10;;;18.60;98.00;;;;;;5091277;28;20796;-72
2022/05/24 00:37:08;;;;;;;1.20;1.03;;;18.20;98.00;;;;;;5091321;28;20972;-72
2022/05/24 00:39:35;;;;;;;1.40;1.20;;;18.10;98.00;;;;;;5091022;28;20826;-72
2022/05/24 00:42:07;;;;;;;1.67;1.20;;;18.00;98.00;;;;;;5091174;28;20732;-72
2022/05/24 00:44:37;;;;;;;1.30;1.10;;;17.90;98.00;;;;;;5091143;28;20459;-72
2022/05/24 00:47:08;;;;;;;1.20;1.10;;;17.90;98.00;;;;;;5073705;28;20524;-71
2022/05/24 00:49:40;;;;;;;1.30;1.10;;;17.90;98.00;;;;;;5091246;28;20451;-72
2022/05/24 00:52:15;;;;;;;2.23;1.40;;;17.90;98.00;;;;;;5090548;28;20456;-72
2022/05/24 00:54:44;;;;;;;1.30;1.20;;;17.70;98.00;;;;;;5090993;28;20456;-72
2022/05/24 00:57:20;;;;;;;1.20;1.17;;;17.70;98.00;;;;;;5090818;28;20968;-72
2022/05/24 00:59:51;;;;;;;1.50;1.30;;;17.80;98.00;;;;;;5090931;28;20479;-72
2022/05/24 01:02:18;;;;;;;1.20;1.13;;;17.80;98.00;;;;;;5090886;28;20460;-72
2022/05/24 01:04:45;;;;;;;1.27;1.17;;;17.80;98.00;;;;;;5090897;28;20456;-72
2022/05/24 01:07:14;;;;;;;1.20;1.07;;;17.70;98.00;;;;;;5091757;28;20456;-72
2022/05/24 01:09:45;;;;;;;1.27;1.27;;;17.70;98.00;;;;;;5094553;28;20937;-72
2022/05/24 01:12:16;;;;;;;1.40;1.23;;;17.70;98.00;;;;;;5094639;28;20455;-72
2022/05/24 01:14:43;;;;;;;1.40;1.30;;;17.70;98.00;;;;;;5094660;28;20866;-72
2022/05/24 01:17:10;;;;;;;1.40;1.07;;;17.60;98.00;;;;;;5094383;28;20517;-71
2022/05/24 01:19:43;;;;;;;1.67;1.23;;;17.60;98.00;;;;;;5094412;28;20886;-72
2022/05/24 01:22:44;;;;;;;1.20;1.20;;;17.60;98.00;;;;;;5094531;28;20464;-72
2022/05/24 01:25:21;;;;;;;1.37;1.10;;;17.60;98.00;;;;;;5094370;28;20511;-72
2022/05/24 01:27:50;;;;;;;1.30;1.17;;;17.50;98.00;;;;;;5076759;28;20458;-72
2022/05/24 01:30:17;;;;;;;1.20;1.10;;;17.30;98.00;;;;;;5094158;28;20452;-72
2022/05/24 01:38:20;;;;;;;1.37;1.17;;;17.40;98.00;;;;;;5094228;28;20482;-72
2022/05/24 01:40:49;;;;;;;1.50;1.33;;;17.60;98.00;;;;;;5093980;28;20484;-72
2022/05/24 01:43:19;;;;;;;1.43;1.37;;;17.50;98.00;;;;;;5094063;28;20455;-72
2022/05/24 01:45:50;;;;;;;1.30;1.20;;;17.50;98.00;;;;;;5094101;28;20478;-72
2022/05/24 01:48:22;;;;;;;1.20;1.20;;;17.50;98.00;;;;;;5094370;28;21025;-72
2022/05/24 01:50:54;;;;;;;1.20;1.10;;;17.50;98.00;;;;;;5094103;28;20456;-72
2022/05/24 01:53:26;;;;;;;1.83;1.50;;;17.60;98.00;;;;;;5093848;28;20508;-72
2022/05/24 01:55:57;;;;;;;1.60;1.40;;;17.40;98.00;;;;;;5093912;28;20456;-72
2022/05/24 01:58:29;;;;;;;1.40;1.40;;;17.30;98.00;;;;;;5093780;28;20464;-72
2022/05/24 02:01:01;;;;;;;1.40;1.30;;;17.30;98.00;;;;;;5093619;28;20501;-72
2022/05/24 02:03:28;;;;;;;1.30;1.20;;;17.30;98.00;;;;;;5093710;28;20830;-72
2022/05/24 02:05:56;;;;;;;1.40;1.20;;;17.30;98.00;;;;;;5093741;28;20509;-72
2022/05/24 02:08:23;;;;;;;1.30;1.30;;;17.30;98.00;;;;;;5093491;28;20455;-72
2022/05/24 02:10:55;;;;;;;1.30;1.20;;;17.30;98.00;;;;;;5093422;28;20461;-72
2022/05/24 02:13:29;;;;;;;1.30;1.23;;;17.30;98.00;;;;;;5093367;28;20808;-72
2022/05/24 02:15:58;;;;;;;1.80;1.50;;;17.20;98.00;;;;;;5093327;28;20861;-72
2022/05/24 02:18:26;;;;;;;1.40;1.30;;;17.20;98.00;;;;;;5092343;28;20506;-72
2022/05/24 02:20:53;;;;;;;1.50;1.20;;;17.10;98.00;;;;;;5058567;28;20851;-72
2022/05/24 02:23:22;;;;;;;1.20;1.10;;;17.10;98.00;;;;;;5093296;28;20456;-72
2022/05/24 02:25:52;;;;;;;1.30;1.10;;;17.10;98.00;;;;;;5075095;28;20492;-72
2022/05/24 02:28:22;;;;;;;1.30;1.20;;;17.10;98.00;;;;;;5093085;28;20463;-72
2022/05/24 02:30:52;;;;;;;1.50;1.20;;;17.10;98.00;;;;;;5075413;28;20444;-72
2022/05/24 02:33:22;;;;;;;1.20;1.10;;;17.10;98.00;;;;;;5093014;28;20460;-72
2022/05/24 02:35:49;;;;;;;2.83;1.40;;;17.20;98.00;;;;;;5075237;28;20464;-72
2022/05/24 02:38:17;;;;;;;1.87;1.50;;;17.20;98.00;;;;;;5092846;28;20451;-72
2022/05/24 02:43:30;;;;;;;1.40;1.13;;;17.30;98.00;;;;;;5077766;28;20440;-72
2022/05/24 02:46:01;;;;;;;1.50;1.20;;;17.40;98.00;;;;;;5093077;28;20459;-72
2022/05/24 02:48:28;;;;;;;1.30;1.20;;;17.40;98.00;;;;;;5092870;28;20456;-72
2022/05/24 02:50:55;;;;;;;1.50;1.33;;;17.30;98.00;;;;;;5093052;28;20539;-72
2022/05/24 02:53:22;;;;;;;1.50;1.30;;;17.20;98.00;;;;;;5092815;28;20454;-72
2022/05/24 02:55:49;;;;;;;1.40;1.20;;;17.10;98.00;;;;;;5092643;28;20864;-72
2022/05/24 02:58:16;;;;;;;1.40;1.20;;;17.10;98.00;;;;;;5092473;28;20459;-72
2022/05/24 03:00:44;;;;;;;1.20;1.20;;;17.30;98.00;;;;;;5092022;28;20483;-72
2022/05/24 03:03:12;;;;;;;1.50;1.40;;;17.30;98.00;;;;;;5092537;28;20460;-72
2022/05/24 03:05:39;;;;;;;1.50;1.50;;;17.30;98.00;;;;;;5092701;28;20942;-72
2022/05/24 03:10:51;;;;;;;1.87;1.33;;;17.10;98.00;;;;;;5077184;28;20442;-72
2022/05/24 03:16:09;;;;;;;1.63;1.20;;;17.00;98.00;;;;;;5092363;28;20510;-72
2022/05/24 03:18:38;;;;;;;1.30;1.10;;;17.00;98.00;;;;;;5074374;28;20448;-72
2022/05/24 03:21:05;;;;;;;1.67;1.27;;;16.80;98.00;;;;;;5092239;28;20529;-72
2022/05/24 03:23:33;;;;;;;1.33;1.30;;;16.80;98.00;;;;;;5092190;28;20816;-72
2022/05/24 03:26:00;;;;;;;1.40;1.33;;;16.70;98.00;;;;;;5091771;28;20513;-72
2022/05/24 03:28:27;;;;;;;1.57;1.30;;;16.80;98.00;;;;;;5091954;28;20452;-72
2022/05/24 03:30:55;;;;;;;1.30;1.20;;;16.80;98.00;;;;;;5091633;28;20509;-72
2022/05/24 03:33:24;;;;;;;1.57;1.10;;;16.80;98.00;;;;;;5091742;28;21026;-72
2022/05/24 03:35:52;;;;;;;1.57;1.50;;;16.70;98.00;;;;;;5091732;28;20534;-72
2022/05/24 03:38:19;;;;;;;1.23;1.17;;;16.60;98.00;;;;;;5092066;28;20520;-72
2022/05/24 03:40:47;;;;;;;1.77;1.10;;;16.60;98.00;;;;;;5091794;28;20487;-72
2022/05/24 03:43:16;;;;;;;1.30;1.20;;;16.50;98.00;;;;;;5091876;28;20455;-72
2022/05/24 03:45:43;;;;;;;1.87;1.30;;;16.60;98.00;;;;;;5091851;28;20979;-72
2022/05/24 03:48:10;;;;;;;1.40;1.20;;;16.70;98.00;;;;;;5091817;28;20463;-72
2022/05/24 03:50:37;;;;;;;1.70;1.50;;;16.60;98.00;;;;;;5073994;28;20456;-72
2022/05/24 03:53:13;;;;;;;1.80;1.77;;;16.60;98.00;;;;;;5073875;28;20455;-72
2022/05/24 03:55:40;;;;;;;1.60;1.40;;;16.60;98.00;;;;;;5091768;28;20459;-72
2022/05/24 03:58:07;;;;;;;2.27;1.57;;;16.70;98.00;;;;;;5073725;28;20474;-74
2022/05/24 04:00:37;;;;;;;1.33;1.30;;;16.90;98.00;;;;;;5091541;28;20480;-74
2022/05/24 04:03:06;;;;;;;1.40;1.17;;;17.00;98.00;;;;;;5091598;28;20468;-74
2022/05/24 04:05:34;;;;;;;1.30;1.20;;;16.90;98.00;;;;;;5091453;28;20803;-74
2022/05/24 04:08:02;;;;;;;1.43;1.30;;;16.80;98.00;;;;;;5091339;28;20460;-74
2022/05/24 04:10:31;;;;;;;1.43;1.20;;;16.90;98.00;;;;;;5091455;28;20460;-74
2022/05/24 04:12:58;;;;;;;1.70;1.30;;;17.00;98.00;;;;;;5088540;28;20467;-74
2022/05/24 04:15:26;;;;;;;1.97;1.53;;;16.80;98.00;;;;;;5091237;28;20512;-74
2022/05/24 04:17:54;;;;;;;1.50;1.30;;;16.60;98.00;;;;;;5091213;28;20457;-74
2022/05/24 04:20:21;;;;;;;1.60;1.40;;;16.60;98.00;;;;;;5091229;28;20557;-74
2022/05/24 04:22:49;;;;;;;2.50;1.47;;;16.60;98.00;;;;;;5091075;28;20460;-74
2022/05/24 04:25:17;;;;;;;1.30;1.30;;;16.70;98.00;;;;;;5090965;28;21082;-74
2022/05/24 04:27:48;;;;;;;1.30;1.30;;;16.70;98.00;;;;;;5091252;28;20452;-74
2022/05/24 04:30:16;;;;;;;2.37;1.30;;;16.70;98.00;;;;;;5091166;28;20509;-74
2022/05/24 04:32:45;;;;;;;1.50;1.40;;;16.60;98.00;;;;;;5091053;28;20459;-74
2022/05/24 04:35:12;;;;;;;1.50;1.20;;;16.60;98.00;;;;;;5089435;28;20456;-74
2022/05/24 04:37:39;;;;;;;1.80;1.67;;;16.60;98.00;;;;;;5091135;28;20460;-74
2022/05/24 04:40:07;;;;;;;1.53;1.33;;;16.80;98.00;;;;;;5091238;28;20490;-74
2022/05/24 04:42:33;;;;;;;1.20;1.10;;;17.00;98.00;;;;;;5092560;28;20510;-74
2022/05/24 04:45:06;;;;;;;1.70;1.40;;;16.90;98.00;;;;;;5095362;28;20471;-74
2022/05/24 04:47:34;;;;;;;1.40;1.10;;;16.90;98.00;;;;;;5095241;28;20830;-74
2022/05/24 04:50:05;;;;;;;1.40;1.20;;;16.80;98.00;;;;;;5095274;28;20463;-74
2022/05/24 04:52:35;;;;;;;1.20;1.20;;;16.80;98.00;;;;;;5095264;28;20552;-74
2022/05/24 04:55:07;;;;;;;1.90;1.33;;;16.80;98.00;;;;;;5095229;28;20492;-74
2022/05/24 04:57:35;;;;;;;2.27;1.30;;;16.70;98.00;;;;;;5094950;28;20549;-74
2022/05/24 05:00:06;;;;;;;1.50;1.37;;;16.80;98.00;;;;;;5094977;28;20479;-74
2022/05/24 05:02:33;;;;;;;1.50;1.40;;;16.70;98.00;;;;;;5094808;28;20542;-74
2022/05/24 05:05:00;;;;;;;1.70;1.40;;;16.70;98.00;;;;;;5094687;28;20475;-74
2022/05/24 05:07:27;;;;;;;1.73;1.30;;;16.80;98.00;;;;;;5094679;28;20447;-74
2022/05/24 05:09:54;;;;;;;1.50;1.40;;;16.90;98.00;;;;;;5076736;28;20451;-74
2022/05/24 05:12:25;;;;;;;1.60;1.37;;;17.00;98.00;;;;;;5094584;28;20455;-74
2022/05/24 05:14:52;;;;;;;1.60;1.40;;;17.20;98.00;;;;;;5077118;28;20452;-74
2022/05/24 05:17:21;;;;;;;1.50;1.43;;;17.30;98.00;;;;;;5094453;28;20459;-74
2022/05/24 05:19:49;;;;;;;1.87;1.30;;;17.30;98.00;;;;;;5094532;28;20459;-74
2022/05/24 05:22:18;;;;;;;1.67;1.33;;;17.20;98.00;;;;;;5094730;28;20479;-74
2022/05/24 05:24:45;;;;;;;1.30;1.20;;;17.10;98.00;;;;;;5094472;28;20617;-74
2022/05/24 05:27:12;;;;;;;1.40;1.20;;;17.30;98.00;;;;;;5094303;28;20448;-74
2022/05/24 05:32:30;;;;;;;1.30;1.30;;;17.30;98.00;;;;;;5079098;28;20998;-74
2022/05/24 05:34:58;;;;;;;1.80;1.53;;;17.30;98.00;;;;;;5094578;28;20451;-74
2022/05/24 05:37:27;;;;;;;4.33;1.90;;;17.50;98.00;;;;;;5094267;28;20463;-74
2022/05/24 05:39:54;;;;;;;1.60;1.27;;;17.70;98.00;;;;;;5094110;28;20456;-74
2022/05/24 05:42:21;;;;;;;1.60;1.30;;;17.70;98.00;;;;;;5094146;28;20851;-74
2022/05/24 05:44:49;;;;;;;1.50;1.30;;;17.60;98.00;;;;;;5094269;28;20467;-74
2022/05/24 05:47:17;;;;;;;1.53;1.30;;;17.60;98.00;;;;;;5093886;28;20482;-74
2022/05/24 05:49:46;;;;;;;1.30;1.27;;;17.50;98.00;;;;;;5094155;28;20517;-74
2022/05/24 05:52:13;;;;;;;1.43;1.30;;;17.40;98.00;;;;;;5094030;28;20474;-74
2022/05/24 05:54:40;;;;;;;1.30;1.20;;;17.50;98.00;;;;;;5093965;28;20456;-74
2022/05/24 05:57:07;;;;;;;1.53;1.47;;;17.70;98.00;;;;;;5093901;28;20456;-74
2022/05/24 05:59:35;;;;;;;1.53;1.40;;;17.90;98.00;;;;;;5093506;28;20454;-74
2022/05/24 06:02:04;;;;;;;1.90;1.70;;;18.10;98.00;;;;;;5093670;28;20868;-74
2022/05/24 06:04:31;;;;;;;1.70;1.40;;;18.10;98.00;;;;;;5093772;28;20527;-74
2022/05/24 06:06:59;;;;;;;1.70;1.50;;;18.20;98.00;;;;;;5075730;28;20469;-73
2022/05/24 06:09:27;;;;;;;1.83;1.47;;;18.30;98.00;;;;;;5093454;28;20495;-74
2022/05/24 06:11:54;;;;;;;1.50;1.40;;;18.40;98.00;;;;;;5093509;28;20488;-74
2022/05/24 06:14:21;;;;;;;1.50;1.37;;;18.50;98.00;;;;;;5093318;28;20464;-74
2022/05/24 06:16:48;;;;;;;1.63;1.50;;;18.50;98.00;;;;;;5092098;28;20451;-74
2022/05/24 06:19:16;;;;;;;1.97;1.43;;;18.50;98.00;;;;;;5093507;28;20452;-75
2022/05/24 06:21:43;;;;;;;1.50;1.40;;;18.40;98.00;;;;;;5075425;28;20889;-74
2022/05/24 06:24:11;;;;;;;1.70;1.23;;;18.60;98.00;;;;;;5093224;28;20475;-75
2022/05/24 06:26:38;;;;;;;1.63;1.40;;;18.50;98.00;;;;;;5093229;28;20455;-74
2022/05/24 06:29:06;;;;;;;1.70;1.50;;;18.40;98.00;;;;;;5093287;28;20468;-74
2022/05/24 06:31:33;;;;;;;1.50;1.30;;;18.40;98.00;;;;;;5093193;28;20452;-74
2022/05/24 06:34:00;;;;;;;2.30;1.47;;;18.40;98.00;;;;;;5093011;28;20463;-74
2022/05/24 06:36:30;;;;;;;2.40;1.60;;;18.50;98.00;;;;;;5093080;28;20444;-76
2022/05/24 06:38:57;;;;;;;1.73;1.40;;;18.70;98.00;;;;;;5093010;28;20455;-75
2022/05/24 06:41:25;;;;;;;1.37;1.37;;;18.80;98.00;;;;;;5092858;28;20491;-76
2022/05/24 06:43:52;;;;;;;1.67;1.40;;;18.80;98.00;;;;;;5092941;28;20949;-76
2022/05/24 06:46:21;;;;;;;1.53;1.27;;;18.90;98.00;;;;;;5093268;28;20505;-76
2022/05/24 06:48:48;;;;;;;2.43;1.80;;;19.10;98.00;;;;;;5092765;28;20459;-75
2022/05/24 06:51:17;;;;;;;3.93;1.67;;;19.30;98.00;;;;;;5092592;28;20455;-75
2022/05/24 06:53:46;;;;;;;2.83;1.47;;;19.20;98.00;;;;;;5092721;28;20459;-75
2022/05/24 06:56:14;;;;;;;1.70;1.30;;;19.30;98.00;;;;;;5092978;28;20452;-75
2022/05/24 06:58:44;;;;;;;1.57;1.10;;;19.20;98.00;;;;;;5092589;28;20452;-75
2022/05/24 07:04:05;;;;;;;1.73;1.53;;;19.30;98.00;;;;;;5092621;28;20447;-75
2022/05/24 07:06:32;;;;;;;1.87;1.20;;;19.40;98.00;;;;;;5092063;28;20517;-76
2022/05/24 07:08:59;;;;;;;1.67;1.20;;;19.30;98.00;;;;;;5092237;28;20521;-75
2022/05/24 07:11:27;;;;;;;1.90;1.40;;;19.30;98.00;;;;;;5092514;28;20470;-75
2022/05/24 07:13:55;;;;;;;1.53;1.30;;;19.30;98.00;;;;;;5092122;28;20825;-75
2022/05/24 07:16:23;;;;;;;1.87;1.17;;;19.40;98.00;;;;;;5092420;28;20456;-75
2022/05/24 07:18:50;;;;;;;1.40;1.30;;;19.50;98.00;;;;;;5092146;28;20467;-75
2022/05/24 07:21:18;;;;;;;1.53;1.20;;;19.60;98.00;;;;;;5092073;28;21020;-74
2022/05/24 07:23:46;;;;;;;1.40;1.30;;;19.60;98.00;;;;;;5092158;28;20456;-75
2022/05/24 07:26:15;;;;;;;1.60;1.30;;;19.50;98.00;;;;;;5082529;28;21039;-75
2022/05/24 07:28:42;;;;;;;1.27;1.20;;;19.30;98.00;;;;;;5065238;28;20453;-75
2022/05/24 07:31:15;;;;;;;1.20;1.00;;;19.30;98.00;;;;;;5079135;28;20519;-74
2022/05/24 07:33:42;;;;;;;1.20;1.03;;;18.50;98.00;;;;;;5070469;28;20841;-74
2022/05/24 07:36:10;;;;;;;1.20;1.00;;;17.40;98.00;;;;;;5079300;28;20463;-75
2022/05/24 07:38:37;;;;;;;1.20;1.00;;;16.70;98.00;;;;;;5087671;28;20459;-76
2022/05/24 07:46:35;;;;;;;1.47;1.00;;;15.20;98.00;;;;;;5088202;28;20786;-76
2022/05/24 07:49:03;;;;;;;1.20;0.90;;;14.90;98.00;;;;;;5090665;28;20471;-77
2022/05/24 07:51:30;;;;;;;1.80;1.30;;;14.70;98.00;;;;;;5061910;28;20463;-77
2022/05/24 07:53:57;;;;;;;1.20;1.10;;;14.60;98.00;;;;;;5081621;28;20471;-77
2022/05/24 07:56:24;;;;;;;1.20;0.97;;;14.70;98.00;;;;;;5075433;28;20454;-79
2022/05/24 07:58:52;;;;;;;1.50;1.10;;;14.50;98.00;;;;;;5072809;28;20447;-77
2022/05/24 08:01:20;;;;;;;1.50;1.10;;;14.70;98.00;;;;;;5082197;28;20492;-77
2022/05/24 08:03:48;;;;;;;1.20;0.90;;;14.80;98.00;;;;;;5073528;28;21127;-76
2022/05/24 08:06:17;;;;;;;1.40;1.30;;;14.80;98.00;;;;;;5082698;28;20458;-76
2022/05/24 08:08:44;;;;;;;1.20;1.10;;;14.70;98.00;;;;;;5082014;28;20449;-76
2022/05/24 08:11:11;;;;;;;1.30;1.20;;;14.80;98.00;;;;;;5083503;28;20448;-78
2022/05/24 08:13:39;;;;;;;1.20;0.90;;;15.00;98.00;;;;;;5084542;28;20461;-78
2022/05/24 08:16:06;;;;;;;1.30;1.10;;;15.10;98.00;;;;;;5089542;28;20460;-76
2022/05/24 08:18:33;;;;;;;1.20;1.00;;;15.30;98.00;;;;;;5083006;28;20462;-75
2022/05/24 08:21:02;;;;;;;1.20;1.03;;;15.20;98.00;;;;;;5085993;28;20477;-75
2022/05/24 08:23:29;;;;;;;1.20;1.00;;;15.20;98.00;;;;;;5067502;28;20452;-77
2022/05/24 08:25:57;;;;;;;1.20;1.00;;;15.20;98.00;;;;;;5085536;28;20468;-76
2022/05/24 08:28:25;;;;;;;1.20;1.07;;;15.40;98.00;;;;;;5083711;28;20996;-75
2022/05/24 08:30:53;;;;;;;1.20;1.00;;;15.60;98.00;;;;;;5081664;28;20532;-76
2022/05/24 08:33:22;;;;;;;1.50;1.10;;;15.70;98.00;;;;;;5074545;28;20470;-76
2022/05/24 08:35:50;;;;;;;1.20;1.07;;;15.70;98.00;;;;;;5081956;28;20528;-77
2022/05/24 08:38:18;;;;;;;1.80;1.40;;;15.90;98.00;;;;;;5068903;28;20976;-76
2022/05/24 08:40:47;;;;;;;1.20;1.03;;;16.10;98.00;;;;;;5088735;28;20461;-76
2022/05/24 08:48:22;;;;;;;1.20;1.10;;;16.30;98.00;;;;;;5081273;28;20450;-77
2022/05/24 08:49:33;;;;;;;1.20;1.00;;;16.80;98.00;;;;;;5072668;28;20453;-77
2022/05/24 08:52:04;;;;;;;1.20;1.03;;;16.80;98.00;;;;;;5089141;28;20811;-80
2022/05/24 08:54:39;;;;;;;1.20;1.07;;;16.90;98.00;;;;;;5073729;28;20460;-76
2022/05/24 08:57:12;;;;;;;1.20;1.10;;;17.00;98.00;;;;;;5094729;28;20454;-78
2022/05/24 08:59:45;;;;;;;1.43;1.40;;;17.30;98.00;;;;;;5075731;28;20459;-75
2022/05/24 09:02:14;;;;;;;1.37;1.30;;;17.50;98.00;;;;;;5085932;28;20492;-76
2022/05/24 09:04:41;;;;;;;1.20;1.10;;;17.50;98.00;;;;;;5078588;28;20457;-76
2022/05/24 09:07:18;;;;;;;1.30;1.10;;;17.30;98.00;;;;;;5078236;28;20502;-70
2022/05/24 09:09:56;;;;;;;1.30;1.17;;;17.30;98.00;;;;;;5086896;28;20479;-74
2022/05/24 09:12:48;;;;;;;1.20;1.00;;;17.70;98.00;;;;;;5087350;28;20474;-74
2022/05/24 09:15:23;;;;;;;1.20;1.00;;;17.90;98.00;;;;;;5077117;28;20550;-74
2022/05/24 09:18:01;;;;;;;1.20;1.00;;;17.70;98.00;;;;;;5071362;28;20460;-73
2022/05/24 09:20:33;;;;;;;1.60;1.10;;;17.50;98.00;;;;;;5088266;28;20452;-74
2022/05/24 09:23:04;;;;;;;1.33;1.23;;;17.60;98.00;;;;;;5070258;28;20496;-74
2022/05/24 09:25:34;;;;;;;1.40;1.30;;;17.60;98.00;;;;;;5078167;28;20499;-76
2022/05/24 09:28:01;;;;;;;1.20;1.00;;;17.70;98.00;;;;;;5088101;28;20473;-76
2022/05/24 09:30:41;;;;;;;1.20;1.03;;;17.70;98.00;;;;;;5082165;28;20518;-75
2022/05/24 09:33:24;;;;;;;1.20;1.00;;;17.90;98.00;;;;;;5074194;28;20468;-77
2022/05/24 09:35:58;;;;;;;1.20;1.00;;;17.90;98.00;;;;;;5083642;28;20859;-78
2022/05/24 09:38:34;;;;;;;1.20;1.00;;;17.90;98.00;;;;;;5087462;28;20529;-77
2022/05/24 09:41:12;;;;;;;1.23;1.13;;;18.10;98.00;;;;;;5081870;28;20467;-78
2022/05/24 09:43:40;;;;;;;1.60;1.10;;;18.40;98.00;;;;;;5080553;28;20455;-76
2022/05/24 09:46:11;;;;;;;1.20;1.10;;;18.60;98.00;;;;;;5085061;28;20452;-77
2022/05/24 09:48:53;;;;;;;1.30;1.10;;;18.80;98.00;;;;;;5074527;28;20453;-76
2022/05/24 09:51:27;;;;;;;1.20;1.10;;;18.80;98.00;;;;;;5089940;28;20471;-76
2022/05/24 09:53:56;;;;;;;1.20;1.07;;;18.70;98.00;;;;;;5091951;28;20463;-77
2022/05/24 09:56:36;;;;;;;1.20;1.10;;;18.50;98.00;;;;;;5082282;28;21016;-76
2022/05/24 09:59:06;;;;;;;1.20;1.10;;;18.60;98.00;;;;;;5082893;28;20460;-78
2022/05/24 10:01:37;;;;;;;1.20;1.00;;;18.70;98.00;;;;;;5082741;28;20476;-78
2022/05/24 10:04:17;;;;;;;1.20;1.13;;;19.10;98.00;;;;;;5083932;28;20960;-77
2022/05/24 10:06:54;;;;;;;1.20;1.00;;;19.20;98.00;;;;;;5081306;28;21060;-77
2022/05/24 10:09:48;;;;;;;1.20;1.03;;;19.10;98.00;;;;;;5059881;28;20464;-76
2022/05/24 10:12:28;;;;;;;2.27;1.40;;;18.90;98.00;;;;;;5090705;28;20467;-77
2022/05/24 10:15:07;;;;;;;1.20;1.10;;;18.70;98.00;;;;;;5080615;28;20468;-77
2022/05/24 10:17:44;;;;;;;1.23;1.10;;;18.80;98.00;;;;;;5072576;28;20468;-76
2022/05/24 10:20:21;;;;;;;1.30;1.10;;;18.80;98.00;;;;;;5087622;28;20486;-77
2022/05/24 10:22:59;;;;;;;1.40;1.10;;;19.00;98.00;;;;;;5087827;28;20903;-77
2022/05/24 10:25:30;;;;;;;1.20;1.00;;;19.50;98.00;;;;;;5081139;28;20495;-77
2022/05/24 10:28:13;;;;;;;1.20;1.10;;;19.70;98.00;;;;;;5083175;28;20822;-77
2022/05/24 10:30:54;;;;;;;1.20;1.10;;;20.10;98.00;;;;;;5071709;28;20463;-77
2022/05/24 10:39:38;;;;;;;1.20;1.13;;;20.50;97.90;;;;;;5089046;28;20506;-77
2022/05/24 10:42:15;;;;;;;1.70;1.40;;;20.70;97.00;;;;;;5090692;28;21152;-78
2022/05/24 10:44:48;;;;;;;2.03;1.33;;;20.80;95.90;;;;;;5081186;28;20460;-75
2022/05/24 10:47:24;;;;;;;1.40;1.20;;;20.90;97.80;;;;;;5080859;28;21031;-77
2022/05/24 10:50:00;;;;;;;1.20;1.10;;;20.90;96.30;;;;;;5066582;28;20548;-77
2022/05/24 10:52:35;;;;;;;1.20;1.10;;;21.10;95.80;;;;;;5074569;28;20982;-78
2022/05/24 10:55:10;;;;;;;1.60;1.23;;;21.30;96.60;;;;;;5093334;28;20903;-77
2022/05/24 10:57:43;;;;;;;1.20;1.20;;;21.00;91.70;;;;;;5093275;28;20451;-77
2022/05/24 11:00:15;;;;;;;1.20;1.10;;;21.10;90.30;;;;;;5093307;28;20856;-77
2022/05/24 11:02:48;;;;;;;1.53;1.30;;;20.70;89.60;;;;;;5092705;28;20480;-77
2022/05/24 11:05:21;;;;;;;1.20;1.20;;;20.60;90.60;;;;;;5092472;28;20459;-77
2022/05/24 11:07:53;;;;;;;1.30;1.10;;;20.90;92.60;;;;;;5093038;28;20886;-78
2022/05/24 11:10:26;;;;;;;1.37;1.23;;;21.20;89.20;;;;;;5092691;28;20486;-77
2022/05/24 11:12:55;;;;;;;1.20;1.10;;;21.40;91.60;;;;;;5052290;28;1156359;-79
2022/05/24 11:15:33;;;;;;;1.70;1.20;;;21.00;85.50;;;;;;5093601;28;20210;-77
2022/05/24 11:18:03;;;;;;;1.20;1.20;;;20.90;88.10;;;;;;5092789;28;20452;-72
2022/05/24 11:20:37;;;;;;;1.23;1.10;;;21.30;88.50;;;;;;5075395;28;20842;-72
2022/05/24 11:23:14;;;;;;;1.30;1.30;;;21.50;87.70;;;;;;5092514;28;20479;-72
2022/05/24 11:25:45;;;;;;;1.20;1.10;;;21.60;87.20;;;;;;5092713;28;20484;-72
2022/05/24 11:28:24;;;;;;;1.20;1.10;;;21.50;84.10;;;;;;5074269;28;20456;-72
2022/05/24 11:30:55;;;;;;;1.30;1.20;;;21.70;87.20;;;;;;5092709;28;20491;-72
2022/05/24 11:33:40;;;;;;;1.20;1.13;;;22.00;88.90;;;;;;5074345;28;20501;-74
2022/05/24 11:36:40;;;;;;;1.40;1.20;;;22.00;87.40;;;;;;5092820;28;20551;-73
2022/05/24 11:39:12;;;;;;;1.30;1.20;;;22.50;88.50;;;;;;5010262;28;20451;-73
2022/05/24 11:41:39;;;;;;;1.20;1.17;;;22.80;87.50;;;;;;5077479;28;20463;-72
2022/05/24 11:44:19;;;;;;;1.97;1.37;;;23.10;88.90;;;;;;5074287;28;20487;-72
2022/05/24 11:46:49;;;;;;;1.40;1.20;;;23.50;85.70;;;;;;5092327;28;20981;-72
2022/05/24 11:50:08;;;;;;;2.47;1.40;;;23.50;80.90;;;;;;5092403;28;20453;-72
2022/05/24 11:52:58;;;;;;;1.60;1.30;;;23.50;81.80;;;;;;5092186;28;20471;-72
2022/05/24 11:55:47;;;;;;;1.20;1.20;;;23.60;80.70;;;;;;5092470;28;20460;-72
2022/05/24 11:58:40;;;;;;;1.40;1.20;;;24.00;82.50;;;;;;5092517;28;20827;-71
2022/05/24 12:01:10;;;;;;;1.30;1.20;;;23.70;81.70;;;;;;5092640;28;20456;-71
2022/05/24 12:09:19;;;;;;;1.20;1.20;;;23.10;85.60;;;;;;5065695;28;20605;-72
2022/05/24 12:11:47;;;;;;;1.40;1.23;;;23.60;83.30;;;;;;5091929;28;20801;-71
2022/05/24 12:14:19;;;;;;;1.40;1.30;;;24.00;81.70;;;;;;5091761;28;20475;-72
2022/05/24 12:17:09;;;;;;;2.70;2.40;;;23.60;81.40;;;;;;5092001;28;20890;-71
2022/05/24 12:19:48;;;;;;;1.20;1.10;;;23.20;83.40;;;;;;5091981;28;20550;-76
2022/05/24 12:22:16;;;;;;;1.40;1.10;;;23.40;82.90;;;;;;5091782;28;20488;-77
2022/05/24 12:24:56;;;;;;;1.33;1.20;;;23.30;81.80;;;;;;5092269;28;20599;-77
2022/05/24 12:27:32;;;;;;;1.40;1.03;;;23.30;81.10;;;;;;5092025;28;20455;-77
2022/05/24 12:30:15;;;;;;;1.30;1.30;;;23.50;83.30;;;;;;5092016;28;20492;-76
2022/05/24 12:32:42;;;;;;;1.30;1.20;;;23.30;82.10;;;;;;5091898;28;20459;-76
2022/05/24 12:35:14;;;;;;;1.50;1.30;;;23.10;82.20;;;;;;5091853;28;20491;-77
2022/05/24 12:37:45;;;;;;;1.93;1.40;;;22.20;82.90;;;;;;5091934;28;20465;-76
2022/05/24 12:40:18;;;;;;;1.43;1.13;;;21.90;85.30;;;;;;5092031;28;20448;-77
2022/05/24 12:42:47;;;;;;;1.30;1.20;;;21.40;83.90;;;;;;5091901;28;20516;-78
2022/05/24 12:45:17;;;;;;;1.73;1.40;;;21.70;84.40;;;;;;5074092;28;21046;-77
2022/05/24 12:47:52;;;;;;;1.30;1.10;;;22.20;82.80;;;;;;5091827;28;20451;-77
2022/05/24 12:50:32;;;;;;;1.43;1.27;;;22.50;83.40;;;;;;5092332;28;20439;-77
2022/05/24 12:53:02;;;;;;;1.80;1.27;;;22.40;83.40;;;;;;5091937;28;20459;-77
2022/05/24 12:58:24;;;;;;;1.20;1.10;;;22.00;84.70;;;;;;5092055;28;20823;-74
2022/05/24 13:00:51;;;;;;;1.20;1.20;;;21.70;84.30;;;;;;5091955;28;20459;-75
2022/05/24 13:03:23;;;;;;;1.30;1.10;;;22.30;84.70;;;;;;5093361;28;20983;-75
2022/05/24 13:05:54;;;;;;;2.37;1.77;;;22.60;81.20;;;;;;5095718;28;20490;-75
2022/05/24 13:08:23;;;;;;;1.30;1.23;;;23.40;82.70;;;;;;5095606;28;20467;-75
2022/05/24 13:10:50;;;;;;;1.40;1.40;;;24.00;79.80;;;;;;5077757;28;20456;-75
2022/05/24 13:13:20;;;;;;;1.30;1.27;;;24.30;76.60;;;;;;5095469;28;20467;-74
2022/05/24 13:15:50;;;;;;;1.70;1.40;;;24.10;76.50;;;;;;5095405;28;20479;-74
2022/05/24 13:18:21;;;;;;;1.20;1.20;;;24.10;77.50;;;;;;5095462;28;20443;-75
2022/05/24 13:20:50;;;;;;;1.30;1.20;;;24.10;77.70;;;;;;5095824;28;20456;-75
2022/05/24 13:23:24;;;;;;;1.40;1.30;;;24.40;76.20;;;;;;5095211;28;20483;-75
2022/05/24 13:25:54;;;;;;;1.30;1.30;;;24.70;76.10;;;;;;5077335;28;20466;-75
2022/05/24 13:28:35;;;;;;;1.40;1.20;;;24.90;76.20;;;;;;5095322;28;20910;-75
2022/05/24 13:33:53;;;;;;;2.27;1.50;;;26.00;77.90;;;;;;5095301;28;20455;-75
2022/05/24 13:36:25;;;;;;;1.63;1.30;;;25.90;70.90;;;;;;5095302;28;20467;-76
2022/05/24 13:39:16;;;;;;;1.60;1.37;;;25.90;71.70;;;;;;5095311;28;20463;-76
2022/05/24 13:41:46;;;;;;;1.40;1.33;;;26.00;73.40;;;;;;5094987;28;20467;-75
2022/05/24 13:44:26;;;;;;;1.40;1.20;;;26.20;76.10;;;;;;5094865;28;20529;-75
2022/05/24 13:47:00;;;;;;;2.27;1.47;;;25.90;74.00;;;;;;5095047;28;20463;-76
2022/05/24 13:49:37;;;;;;;1.47;1.20;;;25.40;73.20;;;;;;5095088;28;20459;-75
2022/05/24 13:52:37;;;;;;;1.87;1.27;;;24.90;74.30;;;;;;5095178;28;20470;-75
2022/05/24 13:55:19;;;;;;;1.40;1.27;;;24.20;76.10;;;;;;5080656;28;20835;-75
2022/05/24 13:57:54;;;;;;;1.30;1.20;;;23.70;77.10;;;;;;5095058;28;20452;-75